createdAt,value
2018-07-09T00:01:02.741Z,16.30
2018-07-09T00:03:31.020Z,16.30
2018-07-09T00:05:59.292Z,16.20
2018-07-09T00:08:27.552Z,16.10
2018-07-09T00:10:58.653Z,16.10
2018-07-09T00:13:27.477Z,16.10
2018-07-09T00:15:56.033Z,16.10
2018-07-09T00:18:24.321Z,16.00
2018-07-09T00:20:52.604Z,15.90
2018-07-09T00:23:20.860Z,15.90
2018-07-09T00:25:49.933Z,15.90
2018-07-09T00:28:18.941Z,15.90
2018-07-09T00:30:47.278Z,15.90
2018-07-09T00:33:16.208Z,15.90
2018-07-09T00:35:44.589Z,15.80
2018-07-09T00:38:12.880Z,15.80
2018-07-09T00:40:41.139Z,15.80
2018-07-09T00:43:09.400Z,15.80
2018-07-09T00:45:37.665Z,15.70
2018-07-09T00:48:06.092Z,15.70
2018-07-09T00:50:34.365Z,15.70
2018-07-09T00:53:02.636Z,15.70
2018-07-09T00:55:31.067Z,15.70
2018-07-09T00:57:59.397Z,15.70
2018-07-09T01:00:27.653Z,15.70
2018-07-09T01:02:55.913Z,15.60
2018-07-09T01:05:24.204Z,15.60
2018-07-09T01:07:52.473Z,15.60
2018-07-09T01:10:20.737Z,15.60
2018-07-09T01:12:48.976Z,15.60
2018-07-09T01:15:17.224Z,15.50
2018-07-09T01:17:45.500Z,15.50
2018-07-09T01:20:13.787Z,15.50
2018-07-09T01:22:42.060Z,15.40
2018-07-09T01:25:10.380Z,15.40
2018-07-09T01:27:38.693Z,15.40
2018-07-09T01:30:12.225Z,15.40
2018-07-09T01:32:40.793Z,15.30
2018-07-09T01:35:09.988Z,15.30
2018-07-09T01:37:38.983Z,15.30
2018-07-09T01:40:07.323Z,15.30
2018-07-09T01:42:35.811Z,15.30
2018-07-09T01:45:04.163Z,15.20
2018-07-09T01:47:32.474Z,15.20
2018-07-09T01:50:00.848Z,15.20
2018-07-09T01:52:29.324Z,15.10
2018-07-09T01:54:57.571Z,15.00
2018-07-09T01:57:25.825Z,15.00
2018-07-09T01:59:54.221Z,14.90
2018-07-09T02:02:22.487Z,14.90
2018-07-09T02:04:50.765Z,14.90
2018-07-09T02:07:19.069Z,15.00
2018-07-09T02:09:47.356Z,15.00
2018-07-09T02:12:15.644Z,14.90
2018-07-09T02:14:44.093Z,14.90
2018-07-09T02:17:12.351Z,14.90
2018-07-09T02:19:40.612Z,14.90
2018-07-09T02:22:08.864Z,14.90
2018-07-09T02:24:37.119Z,14.90
2018-07-09T02:27:05.432Z,14.90
2018-07-09T02:29:33.691Z,14.90
2018-07-09T02:32:01.966Z,14.90
2018-07-09T02:34:30.236Z,14.90
2018-07-09T02:36:58.522Z,14.90
2018-07-09T02:39:26.788Z,15.00
2018-07-09T02:41:55.152Z,15.00
2018-07-09T02:44:23.592Z,14.90
2018-07-09T02:46:51.913Z,14.90
2018-07-09T02:49:20.200Z,15.00
2018-07-09T02:51:48.688Z,15.00
2018-07-09T02:54:17.292Z,15.00
2018-07-09T02:56:45.692Z,15.00
2018-07-09T02:59:13.981Z,14.90
2018-07-09T03:01:42.240Z,14.80
2018-07-09T03:04:10.512Z,14.80
2018-07-09T03:06:38.763Z,14.70
2018-07-09T03:09:07.385Z,14.70
2018-07-09T03:11:35.942Z,14.60
2018-07-09T03:14:04.213Z,14.60
2018-07-09T03:16:32.464Z,14.60
2018-07-09T03:19:00.796Z,14.60
2018-07-09T03:21:28.996Z,14.60
2018-07-09T03:23:57.260Z,14.60
2018-07-09T03:26:25.541Z,14.60
2018-07-09T03:28:53.829Z,14.60
2018-07-09T03:31:22.145Z,14.50
2018-07-09T03:33:50.559Z,14.50
2018-07-09T03:36:18.800Z,14.50
2018-07-09T03:38:47.055Z,14.50
2018-07-09T03:41:15.317Z,14.50
2018-07-09T03:43:43.573Z,14.50
2018-07-09T03:46:11.825Z,14.40
2018-07-09T03:48:40.080Z,14.50
2018-07-09T03:51:08.367Z,14.50
2018-07-09T03:53:36.615Z,14.60
2018-07-09T03:56:04.879Z,14.70
2018-07-09T03:58:33.115Z,14.90
2018-07-09T04:01:01.377Z,15.10
2018-07-09T04:03:29.624Z,15.30
2018-07-09T04:05:57.953Z,15.50
2018-07-09T04:08:26.207Z,15.80
2018-07-09T04:10:54.464Z,16.10
2018-07-09T04:13:22.889Z,16.30
2018-07-09T04:15:51.131Z,16.50
2018-07-09T04:18:22.779Z,16.60
2018-07-09T04:20:57.717Z,16.70
2018-07-09T04:23:25.908Z,16.80
2018-07-09T04:25:54.168Z,16.90
2018-07-09T04:28:22.592Z,17.10
2018-07-09T04:30:50.936Z,17.20
2018-07-09T04:33:19.662Z,17.40
2018-07-09T04:35:47.967Z,17.50
2018-07-09T04:38:16.247Z,17.70
2018-07-09T04:40:44.516Z,17.80
2018-07-09T04:43:12.847Z,18.00
2018-07-09T04:45:41.093Z,18.10
2018-07-09T04:48:09.360Z,18.10
2018-07-09T04:50:37.599Z,18.20
2018-07-09T04:53:05.856Z,18.40
2018-07-09T04:55:34.098Z,18.40
2018-07-09T04:58:02.366Z,18.50
2018-07-09T05:00:30.615Z,18.60
2018-07-09T05:02:58.859Z,18.60
2018-07-09T05:05:27.108Z,18.70
2018-07-09T05:07:55.377Z,18.80
2018-07-09T05:10:23.659Z,18.90
2018-07-09T05:12:51.903Z,19.00
2018-07-09T05:15:20.174Z,19.10
2018-07-09T05:17:48.458Z,19.30
2018-07-09T05:20:16.732Z,19.40
2018-07-09T05:22:45.029Z,19.60
2018-07-09T05:25:13.281Z,19.80
2018-07-09T05:27:41.566Z,20.00
2018-07-09T05:30:09.832Z,20.10
2018-07-09T05:32:38.093Z,20.20
2018-07-09T05:35:06.736Z,20.10
2018-07-09T05:37:35.000Z,20.00
2018-07-09T05:40:03.399Z,19.90
2018-07-09T05:42:31.616Z,19.90
2018-07-09T05:44:59.877Z,20.00
2018-07-09T05:47:28.210Z,20.10
2018-07-09T05:49:56.661Z,20.20
2018-07-09T05:52:24.921Z,20.20
2018-07-09T05:54:53.184Z,20.30
2018-07-09T05:57:21.489Z,20.30
2018-07-09T05:59:49.744Z,20.40
2018-07-09T06:02:18.017Z,20.70
2018-07-09T06:04:46.295Z,20.80
2018-07-09T06:07:14.552Z,20.90
2018-07-09T06:09:42.828Z,20.90
2018-07-09T06:12:11.144Z,20.80
2018-07-09T06:14:39.416Z,20.80
2018-07-09T06:17:08.140Z,20.60
2018-07-09T06:19:36.461Z,20.50
2018-07-09T06:22:04.707Z,20.60
2018-07-09T06:24:33.080Z,20.60
2018-07-09T06:27:01.337Z,20.70
2018-07-09T06:29:29.620Z,20.60
2018-07-09T06:31:57.893Z,20.60
2018-07-09T06:34:26.140Z,20.70
2018-07-09T06:36:54.536Z,20.80
2018-07-09T06:39:22.825Z,20.80
2018-07-09T06:41:51.256Z,20.80
2018-07-09T06:44:19.529Z,20.80
2018-07-09T06:46:47.809Z,20.80
2018-07-09T06:49:16.085Z,20.90
2018-07-09T06:51:44.337Z,20.90
2018-07-09T06:54:12.596Z,20.90
2018-07-09T06:56:40.844Z,20.90
2018-07-09T06:59:09.165Z,20.90
2018-07-09T07:01:37.392Z,20.90
2018-07-09T07:04:05.710Z,20.90
2018-07-09T07:06:33.975Z,21.00
2018-07-09T07:09:02.309Z,21.10
2018-07-09T07:11:30.534Z,21.30
2018-07-09T07:13:58.793Z,21.30
2018-07-09T07:16:27.048Z,21.50
2018-07-09T07:18:55.313Z,21.50
2018-07-09T07:21:23.599Z,21.60
2018-07-09T07:23:51.847Z,21.60
2018-07-09T07:26:20.114Z,21.60
2018-07-09T07:28:48.402Z,21.70
2018-07-09T07:31:16.691Z,21.60
2018-07-09T07:33:44.954Z,21.70
2018-07-09T07:36:13.226Z,21.90
2018-07-09T07:38:41.510Z,22.00
2018-07-09T07:41:09.824Z,22.10
2018-07-09T07:43:38.098Z,22.20
2018-07-09T07:46:06.369Z,22.30
2018-07-09T07:48:34.649Z,22.30
2018-07-09T07:51:02.953Z,22.40
2018-07-09T07:53:31.216Z,22.40
2018-07-09T07:55:59.551Z,22.40
2018-07-09T07:58:27.775Z,22.40
2018-07-09T08:00:56.132Z,22.40
2018-07-09T08:03:24.434Z,22.50
2018-07-09T08:05:52.721Z,22.50
2018-07-09T08:08:20.982Z,22.50
2018-07-09T08:10:49.432Z,22.60
2018-07-09T08:13:27.984Z,22.80
2018-07-09T08:15:46.103Z,22.90
2018-07-09T08:18:14.394Z,22.90
2018-07-09T08:20:42.664Z,22.70
2018-07-09T08:23:10.939Z,22.70
2018-07-09T08:25:39.791Z,22.80
2018-07-09T08:28:07.977Z,22.80
2018-07-09T08:30:36.230Z,22.90
2018-07-09T08:33:04.530Z,23.10
2018-07-09T08:35:32.747Z,23.10
2018-07-09T08:38:01.051Z,23.10
2018-07-09T08:40:29.313Z,23.00
2018-07-09T08:42:57.563Z,22.90
2018-07-09T08:45:25.818Z,23.10
2018-07-09T08:47:54.099Z,23.20
2018-07-09T08:50:22.378Z,23.50
2018-07-09T08:52:50.640Z,23.60
2018-07-09T08:55:18.933Z,23.40
2018-07-09T08:57:47.210Z,23.60
2018-07-09T09:00:15.472Z,23.70
2018-07-09T09:02:43.756Z,23.90
2018-07-09T09:05:12.035Z,23.90
2018-07-09T09:07:40.296Z,23.70
2018-07-09T09:10:08.635Z,23.70
2018-07-09T09:12:36.820Z,23.70
2018-07-09T09:15:05.084Z,23.60
2018-07-09T09:17:33.355Z,23.70
2018-07-09T09:20:01.621Z,23.70
2018-07-09T09:22:29.933Z,23.90
2018-07-09T09:24:58.179Z,24.00
2018-07-09T09:27:26.536Z,23.90
2018-07-09T09:29:55.008Z,23.80
2018-07-09T09:32:23.280Z,23.90
2018-07-09T09:34:51.569Z,23.90
2018-07-09T09:37:19.891Z,24.10
2018-07-09T09:39:48.111Z,24.10
2018-07-09T09:42:16.412Z,24.10
2018-07-09T09:44:44.675Z,24.40
2018-07-09T09:47:12.915Z,24.50
2018-07-09T09:49:41.193Z,24.40
2018-07-09T09:52:09.450Z,24.30
2018-07-09T09:54:37.728Z,24.20
2018-07-09T09:57:06.041Z,24.40
2018-07-09T09:59:34.321Z,24.40
2018-07-09T10:02:02.612Z,24.40
2018-07-09T10:04:31.311Z,24.70
2018-07-09T10:06:59.593Z,24.70
2018-07-09T10:09:27.851Z,24.90
2018-07-09T10:11:56.108Z,25.10
2018-07-09T10:14:24.380Z,25.10
2018-07-09T10:16:52.703Z,25.00
2018-07-09T10:19:20.922Z,24.90
2018-07-09T10:21:49.196Z,25.00
2018-07-09T10:24:17.524Z,24.90
2018-07-09T10:26:45.793Z,24.90
2018-07-09T10:29:14.048Z,24.80
2018-07-09T10:31:42.455Z,24.80
2018-07-09T10:34:10.915Z,24.90
2018-07-09T10:36:39.292Z,25.10
2018-07-09T10:39:07.705Z,25.00
2018-07-09T10:41:36.107Z,25.30
2018-07-09T10:44:04.463Z,25.60
2018-07-09T10:46:32.868Z,25.70
2018-07-09T10:49:01.212Z,25.60
2018-07-09T10:51:29.541Z,25.70
2018-07-09T10:53:58.053Z,25.60
2018-07-09T10:56:26.586Z,25.50
2018-07-09T10:58:54.968Z,25.30
2018-07-09T11:01:23.340Z,24.90
2018-07-09T11:03:51.663Z,25.10
2018-07-09T11:06:20.037Z,25.30
2018-07-09T11:08:48.437Z,25.40
2018-07-09T11:11:16.724Z,25.30
2018-07-09T11:13:44.975Z,25.10
2018-07-09T11:16:13.270Z,25.30
2018-07-09T11:18:41.728Z,25.40
2018-07-09T11:21:10.137Z,25.50
2018-07-09T11:23:38.408Z,25.80
2018-07-09T11:26:06.792Z,25.80
2018-07-09T11:28:35.055Z,25.90
2018-07-09T11:31:03.368Z,26.30
2018-07-09T11:33:31.645Z,26.00
2018-07-09T11:35:59.924Z,25.90
2018-07-09T11:38:28.216Z,26.00
2018-07-09T11:40:56.556Z,25.80
2018-07-09T11:43:24.827Z,25.70
2018-07-09T11:45:53.084Z,25.70
2018-07-09T11:48:21.319Z,25.70
2018-07-09T11:50:49.586Z,25.50
2018-07-09T11:53:17.871Z,25.50
2018-07-09T11:55:46.133Z,25.70
2018-07-09T11:58:14.369Z,25.60
2018-07-09T12:00:42.685Z,26.00
2018-07-09T12:03:10.961Z,26.20
2018-07-09T12:05:39.257Z,26.40
2018-07-09T12:08:07.521Z,26.40
2018-07-09T12:10:35.792Z,26.20
2018-07-09T12:13:04.104Z,26.60
2018-07-09T12:15:32.407Z,26.70
2018-07-09T12:18:00.676Z,26.90
2018-07-09T12:20:29.012Z,26.70
2018-07-09T12:22:57.270Z,26.80
2018-07-09T12:25:25.517Z,26.80
2018-07-09T12:27:53.780Z,26.90
2018-07-09T12:30:22.080Z,26.80
2018-07-09T12:32:50.342Z,26.40
2018-07-09T12:35:18.608Z,26.50
2018-07-09T12:37:47.064Z,26.60
2018-07-09T12:40:15.356Z,26.40
2018-07-09T12:42:43.609Z,26.20
2018-07-09T12:45:11.889Z,26.10
2018-07-09T12:47:40.280Z,26.30
2018-07-09T12:50:08.541Z,26.40
2018-07-09T12:52:36.785Z,26.20
2018-07-09T12:55:05.197Z,25.90
2018-07-09T12:57:33.477Z,25.90
2018-07-09T13:00:01.735Z,25.90
2018-07-09T13:02:29.974Z,26.10
2018-07-09T13:04:58.240Z,26.40
2018-07-09T13:07:26.504Z,26.40
2018-07-09T13:09:54.772Z,26.50
2018-07-09T13:12:28.865Z,26.40
2018-07-09T13:14:58.921Z,26.40
2018-07-09T13:17:27.185Z,26.20
2018-07-09T13:19:55.535Z,26.20
2018-07-09T13:22:23.939Z,26.40
2018-07-09T13:24:52.235Z,26.40
2018-07-09T13:27:20.496Z,26.30
2018-07-09T13:29:48.793Z,26.30
2018-07-09T13:32:17.072Z,26.40
2018-07-09T13:34:45.581Z,26.70
2018-07-09T13:37:13.884Z,27.10
2018-07-09T13:39:42.175Z,27.40
2018-07-09T13:42:10.450Z,27.40
2018-07-09T13:44:38.724Z,27.40
2018-07-09T13:47:06.988Z,27.20
2018-07-09T13:49:35.280Z,27.20
2018-07-09T13:52:04.381Z,27.40
2018-07-09T13:54:32.730Z,27.60
2018-07-09T13:57:01.064Z,27.20
2018-07-09T13:59:29.380Z,27.20
2018-07-09T14:01:57.739Z,27.20
2018-07-09T14:04:25.984Z,27.30
2018-07-09T14:06:54.584Z,26.80
2018-07-09T14:09:22.908Z,26.90
2018-07-09T14:11:51.166Z,26.60
2018-07-09T14:14:19.470Z,26.40
2018-07-09T14:16:47.728Z,26.70
2018-07-09T14:19:27.253Z,27.10
2018-07-09T14:21:55.496Z,27.40
2018-07-09T14:24:23.748Z,27.50
2018-07-09T14:26:52.024Z,27.40
2018-07-09T14:29:20.300Z,27.30
2018-07-09T14:31:48.573Z,27.20
2018-07-09T14:34:16.893Z,27.00
2018-07-09T14:36:45.139Z,26.90
2018-07-09T14:39:13.445Z,26.90
2018-07-09T14:41:41.706Z,27.00
2018-07-09T14:44:09.965Z,27.10
2018-07-09T14:46:38.216Z,27.00
2018-07-09T14:49:06.512Z,26.80
2018-07-09T14:51:34.777Z,26.80
2018-07-09T14:54:03.020Z,26.70
2018-07-09T14:56:31.274Z,26.50
2018-07-09T14:58:59.532Z,26.30
2018-07-09T15:01:27.790Z,26.30
2018-07-09T15:03:56.056Z,26.40
2018-07-09T15:06:24.332Z,26.50
2018-07-09T15:08:52.589Z,26.50
2018-07-09T15:11:20.831Z,26.60
2018-07-09T15:13:49.148Z,26.80
2018-07-09T15:16:17.395Z,27.20
2018-07-09T15:18:45.660Z,27.30
2018-07-09T15:21:13.915Z,27.60
2018-07-09T15:23:42.196Z,27.80
2018-07-09T15:26:10.444Z,27.90
2018-07-09T15:28:38.699Z,28.00
2018-07-09T15:31:07.001Z,27.80
2018-07-09T15:33:35.259Z,28.10
2018-07-09T15:36:03.596Z,28.40
2018-07-09T15:38:31.788Z,28.20
2018-07-09T15:41:00.065Z,28.30
2018-07-09T15:43:41.141Z,28.10
2018-07-09T15:46:09.407Z,28.00
2018-07-09T15:48:37.673Z,28.20
2018-07-09T15:51:05.958Z,28.70
2018-07-09T15:53:34.218Z,29.70
2018-07-09T15:56:02.468Z,31.50
2018-07-09T15:58:30.748Z,33.30
2018-07-09T16:00:59.106Z,34.80
2018-07-09T16:03:27.371Z,35.70
2018-07-09T16:05:55.629Z,36.30
2018-07-09T16:08:23.904Z,37.10
2018-07-09T16:10:52.165Z,38.20
2018-07-09T16:13:20.409Z,39.00
2018-07-09T16:15:48.676Z,39.90
2018-07-09T16:18:16.924Z,39.80
2018-07-09T16:20:45.208Z,39.50
2018-07-09T16:23:13.487Z,39.70
2018-07-09T16:25:41.780Z,40.80
2018-07-09T16:30:44.622Z,41.80
2018-07-09T16:33:12.887Z,41.60
2018-07-09T16:35:41.163Z,41.20
2018-07-09T16:38:09.403Z,40.40
2018-07-09T16:40:37.680Z,38.10
2018-07-09T16:43:07.001Z,36.30
2018-07-09T16:45:35.293Z,34.10
2018-07-09T16:48:03.604Z,34.10
2018-07-09T16:50:31.883Z,34.80
2018-07-09T16:53:00.154Z,34.30
2018-07-09T16:55:28.432Z,33.10
2018-07-09T16:57:56.714Z,34.10
2018-07-09T17:00:25.036Z,35.70
2018-07-09T17:02:53.328Z,36.40
2018-07-09T17:05:21.584Z,36.00
2018-07-09T17:07:49.934Z,36.60
2018-07-09T17:10:18.195Z,37.70
2018-07-09T17:12:46.463Z,38.20
2018-07-09T17:15:14.712Z,38.80
2018-07-09T17:17:42.960Z,39.20
2018-07-09T17:20:11.312Z,40.10
2018-07-09T17:22:39.566Z,40.10
2018-07-09T17:25:07.856Z,40.30
2018-07-09T17:27:36.236Z,40.60
2018-07-09T17:30:04.553Z,40.70
2018-07-09T17:32:32.873Z,40.70
2018-07-09T17:35:01.078Z,40.00
2018-07-09T17:37:29.405Z,39.40
2018-07-09T17:39:57.672Z,38.90
2018-07-09T17:42:25.927Z,37.80
2018-07-09T17:44:54.181Z,36.90
2018-07-09T17:47:22.488Z,35.70
2018-07-09T17:49:50.977Z,33.60
2018-07-09T17:52:19.180Z,32.50
2018-07-09T17:54:47.432Z,31.50
2018-07-09T17:57:15.684Z,30.80
2018-07-09T17:59:43.936Z,30.80
2018-07-09T18:02:12.244Z,30.00
2018-07-09T18:04:40.512Z,29.40
2018-07-09T18:07:08.784Z,29.20
2018-07-09T18:09:37.073Z,28.80
2018-07-09T18:12:05.365Z,28.70
2018-07-09T18:14:33.648Z,28.90
2018-07-09T18:17:01.896Z,29.10
2018-07-09T18:19:30.187Z,29.60
2018-07-09T18:21:58.444Z,29.40
2018-07-09T18:24:26.701Z,29.50
2018-07-09T18:26:54.969Z,29.60
2018-07-09T18:29:23.220Z,29.80
2018-07-09T18:31:51.503Z,29.40
2018-07-09T18:34:19.784Z,28.90
2018-07-09T18:36:48.072Z,28.40
2018-07-09T18:39:16.336Z,27.90
2018-07-09T18:41:44.608Z,27.50
2018-07-09T18:44:12.852Z,27.10
2018-07-09T18:46:41.117Z,26.70
2018-07-09T18:49:09.373Z,26.50
2018-07-09T18:51:37.619Z,26.20
2018-07-09T18:54:05.911Z,26.00
2018-07-09T18:56:34.188Z,25.50
2018-07-09T18:59:02.477Z,25.00
2018-07-09T19:01:30.720Z,24.70
2018-07-09T19:03:58.996Z,24.60
2018-07-09T19:06:42.229Z,24.50
2018-07-09T19:09:10.525Z,24.30
2018-07-09T19:11:38.929Z,24.20
2018-07-09T19:14:07.465Z,23.90
2018-07-09T19:16:45.629Z,23.70
2018-07-09T19:19:25.156Z,23.60
2018-07-09T19:21:59.530Z,23.50
2018-07-09T19:24:26.741Z,23.40
2018-07-09T19:26:54.238Z,23.40
2018-07-09T19:29:21.451Z,23.30
2018-07-09T19:31:48.689Z,23.20
2018-07-09T19:34:15.909Z,23.10
2018-07-09T19:36:43.183Z,23.00
2018-07-09T19:39:11.172Z,22.90
2018-07-09T19:41:38.429Z,22.80
2018-07-09T19:44:05.641Z,22.70
2018-07-09T19:46:32.854Z,22.70
2018-07-09T19:49:00.097Z,22.60
2018-07-09T19:51:27.309Z,22.40
2018-07-09T19:53:54.530Z,22.30
2018-07-09T19:56:21.753Z,22.20
2018-07-09T19:58:49.050Z,22.10
2018-07-09T20:01:16.260Z,22.10
2018-07-09T20:03:43.471Z,22.10
2018-07-09T20:06:10.685Z,22.00
2018-07-09T20:08:43.310Z,22.00
2018-07-09T20:11:15.751Z,22.00
2018-07-09T20:13:51.076Z,22.00
2018-07-09T20:16:23.678Z,21.90
2018-07-09T20:18:52.479Z,21.80
2018-07-09T20:21:20.047Z,21.70
2018-07-09T20:23:47.289Z,21.70
2018-07-09T20:26:14.508Z,21.70
2018-07-09T20:28:41.744Z,21.70
2018-07-09T20:31:08.964Z,21.80
2018-07-09T20:33:36.171Z,21.70
2018-07-09T20:36:03.458Z,21.60
2018-07-09T20:38:30.742Z,21.50
2018-07-09T20:40:57.969Z,21.50
2018-07-09T20:43:25.163Z,21.50
2018-07-09T20:45:52.429Z,21.50
2018-07-09T20:48:19.640Z,21.50
2018-07-09T20:50:46.971Z,21.40
2018-07-09T20:53:14.185Z,21.40
2018-07-09T20:55:41.412Z,21.50
2018-07-09T20:58:08.640Z,21.50
2018-07-09T21:00:35.853Z,21.40
2018-07-09T21:03:03.060Z,21.40
2018-07-09T21:05:30.277Z,21.30
2018-07-09T21:07:57.491Z,21.30
2018-07-09T21:10:24.688Z,21.30
2018-07-09T21:12:55.796Z,21.30
2018-07-09T21:15:23.706Z,21.30
2018-07-09T21:17:50.720Z,21.30
2018-07-09T21:20:18.396Z,21.20
2018-07-09T21:22:45.920Z,21.20
2018-07-09T21:25:13.312Z,21.10
2018-07-09T21:27:40.836Z,21.10
2018-07-09T21:30:08.058Z,21.10
2018-07-09T21:32:35.280Z,21.10
2018-07-09T21:35:02.590Z,21.10
2018-07-09T21:37:29.910Z,21.10
2018-07-09T21:39:57.016Z,21.10
2018-07-09T21:42:24.252Z,21.10
2018-07-09T21:44:51.460Z,21.10
2018-07-09T21:47:18.668Z,21.10
2018-07-09T21:49:45.880Z,21.00
2018-07-09T21:52:13.131Z,21.00
2018-07-09T21:54:40.339Z,20.90
2018-07-09T21:57:07.556Z,20.90
2018-07-09T21:59:34.767Z,20.80
2018-07-09T22:02:02.144Z,20.80
2018-07-09T22:04:29.370Z,20.80
2018-07-09T22:06:56.592Z,20.80
2018-07-09T22:09:23.805Z,20.80
2018-07-09T22:11:51.019Z,20.70
2018-07-09T22:14:18.228Z,20.70
2018-07-09T22:16:45.445Z,20.60
2018-07-09T22:19:12.684Z,20.60
2018-07-09T22:21:39.912Z,20.60
2018-07-09T22:24:07.128Z,20.50
2018-07-09T22:26:34.345Z,20.50
2018-07-09T22:29:01.611Z,20.50
2018-07-09T22:31:29.856Z,20.50
2018-07-09T22:33:58.108Z,20.40
2018-07-09T22:36:26.375Z,20.40
2018-07-09T22:38:54.672Z,20.40
2018-07-09T22:41:22.925Z,20.20
2018-07-09T22:44:02.483Z,19.90
2018-07-09T22:46:30.758Z,19.70
2018-07-09T22:48:59.029Z,19.50
2018-07-09T22:51:27.284Z,19.50
2018-07-09T22:53:55.532Z,19.50
2018-07-09T22:56:23.780Z,19.50
2018-07-09T22:58:52.112Z,19.40
2018-07-09T23:01:20.374Z,19.20
2018-07-09T23:03:48.661Z,19.10
2018-07-09T23:06:16.936Z,19.00
2018-07-09T23:08:45.238Z,19.00
2018-07-09T23:13:33.327Z,19.10
2018-07-09T23:18:14.610Z,19.10
2018-07-09T23:20:54.081Z,19.00
2018-07-09T23:23:21.288Z,18.90
2018-07-09T23:25:48.508Z,18.80
2018-07-09T23:28:15.744Z,18.80
2018-07-09T23:30:42.962Z,18.70
2018-07-09T23:33:10.173Z,18.60
2018-07-09T23:35:37.376Z,18.50
2018-07-09T23:38:04.597Z,18.40
2018-07-09T23:40:31.810Z,18.40
2018-07-09T23:42:59.020Z,18.40
2018-07-09T23:45:26.233Z,18.30
2018-07-09T23:47:53.445Z,18.30
2018-07-09T23:50:20.670Z,18.30
2018-07-09T23:52:47.882Z,18.20
2018-07-09T23:55:15.122Z,18.20
